createdAt,value
2017-10-13T00:00:57.465Z,8.07
2017-10-13T00:03:28.496Z,8.23
2017-10-13T00:05:56.677Z,8.47
2017-10-13T00:08:24.841Z,8.00
2017-10-13T00:10:54.632Z,8.93
2017-10-13T00:13:23.160Z,8.87
2017-10-13T00:15:54.945Z,8.30
2017-10-13T00:18:23.829Z,8.60
2017-10-13T00:20:53.045Z,9.67
2017-10-13T00:23:22.511Z,9.00
2017-10-13T00:25:50.646Z,8.93
2017-10-13T00:28:20.458Z,9.30
2017-10-13T00:30:48.660Z,9.10
2017-10-13T00:33:21.844Z,8.87
2017-10-13T00:35:49.994Z,8.33
2017-10-13T00:38:19.937Z,9.03
2017-10-13T00:40:48.078Z,8.20
2017-10-13T00:43:17.296Z,7.43
2017-10-13T00:45:45.443Z,8.30
2017-10-13T00:48:18.979Z,8.30
2017-10-13T00:50:47.139Z,8.83
2017-10-13T00:53:16.209Z,7.50
2017-10-13T00:55:44.377Z,7.80
2017-10-13T00:58:15.940Z,6.80
2017-10-13T01:00:44.099Z,7.87
2017-10-13T01:03:12.249Z,7.83
2017-10-13T01:05:41.731Z,6.07
2017-10-13T01:08:11.478Z,6.00
2017-10-13T01:10:41.725Z,6.10
2017-10-13T01:13:09.878Z,6.33
2017-10-13T01:15:40.982Z,6.40
2017-10-13T01:18:10.508Z,6.20
2017-10-13T01:20:38.637Z,6.23
2017-10-13T01:23:08.508Z,6.63
2017-10-13T01:25:38.989Z,5.53
2017-10-13T01:28:07.665Z,5.47
2017-10-13T01:30:35.774Z,5.40
2017-10-13T01:33:03.933Z,5.53
2017-10-13T01:35:34.395Z,5.47
2017-10-13T01:38:03.695Z,5.50
2017-10-13T01:40:32.577Z,4.77
2017-10-13T01:43:00.702Z,5.20
2017-10-13T01:45:28.826Z,5.20
2017-10-13T01:47:56.993Z,5.07
2017-10-13T01:50:25.105Z,4.97
2017-10-13T01:52:53.241Z,4.53
2017-10-13T01:55:21.795Z,5.00
2017-10-13T01:57:49.924Z,5.70
2017-10-13T02:00:18.052Z,5.07
2017-10-13T02:02:46.218Z,4.70
2017-10-13T02:05:14.884Z,5.20
2017-10-13T02:07:45.458Z,5.70
2017-10-13T02:10:14.339Z,4.50
2017-10-13T02:12:42.940Z,5.20
2017-10-13T02:15:11.068Z,4.87
2017-10-13T02:17:39.186Z,4.47
2017-10-13T02:20:08.098Z,4.53
2017-10-13T02:22:37.409Z,4.00
2017-10-13T02:25:06.918Z,4.60
2017-10-13T02:27:36.930Z,4.80
2017-10-13T02:30:06.411Z,5.00
2017-10-13T02:32:36.406Z,4.37
2017-10-13T02:35:06.056Z,5.20
2017-10-13T02:37:35.221Z,4.60
2017-10-13T02:40:05.530Z,4.47
2017-10-13T02:42:35.730Z,4.73
2017-10-13T02:45:07.059Z,5.17
2017-10-13T02:47:37.349Z,4.80
2017-10-13T02:50:06.256Z,4.73
2017-10-13T02:52:35.233Z,5.57
2017-10-13T02:55:03.367Z,5.47
2017-10-13T02:57:33.513Z,5.07
2017-10-13T03:00:03.822Z,4.70
2017-10-13T03:02:33.253Z,4.67
2017-10-13T03:05:04.140Z,5.70
2017-10-13T03:07:32.253Z,4.90
2017-10-13T03:10:00.397Z,5.30
2017-10-13T03:12:30.450Z,4.57
2017-10-13T03:14:59.824Z,5.40
2017-10-13T03:17:28.439Z,4.60
2017-10-13T03:19:58.668Z,6.00
2017-10-13T03:22:28.375Z,5.30
2017-10-13T03:24:57.669Z,5.60
2017-10-13T03:27:27.169Z,5.63
2017-10-13T03:29:55.291Z,6.27
2017-10-13T03:32:25.891Z,5.30
2017-10-13T03:34:55.815Z,5.10
2017-10-13T03:37:24.685Z,5.37
2017-10-13T03:39:54.351Z,5.77
2017-10-13T03:42:24.216Z,6.03
2017-10-13T03:44:53.240Z,6.07
2017-10-13T03:47:21.360Z,6.40
2017-10-13T03:49:50.577Z,6.10
2017-10-13T03:52:20.946Z,5.40
2017-10-13T03:54:49.157Z,4.97
2017-10-13T03:57:19.613Z,4.90
2017-10-13T03:59:52.408Z,4.97
2017-10-13T04:02:21.379Z,4.60
2017-10-13T04:04:49.500Z,6.23
2017-10-13T04:07:17.649Z,5.10
2017-10-13T04:09:46.518Z,5.10
2017-10-13T04:12:17.142Z,5.17
2017-10-13T04:14:45.760Z,6.63
2017-10-13T04:17:14.825Z,5.73
2017-10-13T04:19:43.713Z,5.70
2017-10-13T04:22:12.619Z,5.03
2017-10-13T04:24:44.592Z,5.37
2017-10-13T04:27:13.937Z,5.13
2017-10-13T04:29:42.066Z,4.93
2017-10-13T04:32:10.949Z,5.10
2017-10-13T04:34:39.085Z,4.77
2017-10-13T04:37:10.300Z,6.47
2017-10-13T04:39:38.443Z,5.57
2017-10-13T04:42:06.601Z,5.37
2017-10-13T04:44:37.143Z,4.90
2017-10-13T04:47:06.046Z,4.80
2017-10-13T04:49:35.819Z,5.40
2017-10-13T04:52:03.981Z,5.23
2017-10-13T04:54:32.621Z,5.67
2017-10-13T04:57:01.203Z,7.40
2017-10-13T04:59:30.019Z,5.73
2017-10-13T05:01:59.170Z,6.57
2017-10-13T05:04:27.770Z,6.30
2017-10-13T05:06:55.946Z,6.17
2017-10-13T05:09:24.080Z,8.27
2017-10-13T05:11:52.232Z,5.83
2017-10-13T05:14:22.037Z,5.00
2017-10-13T05:16:50.207Z,6.43
2017-10-13T05:19:19.558Z,5.73
2017-10-13T05:21:52.332Z,6.43
2017-10-13T05:24:21.302Z,6.97
2017-10-13T05:26:49.469Z,5.43
2017-10-13T05:29:17.595Z,6.20
2017-10-13T05:31:45.737Z,5.10
2017-10-13T05:34:14.321Z,6.57
2017-10-13T05:36:45.871Z,6.30
2017-10-13T05:39:14.004Z,5.80
2017-10-13T05:41:42.147Z,6.23
2017-10-13T05:44:11.172Z,6.17
2017-10-13T05:46:39.333Z,5.70
2017-10-13T05:49:07.453Z,5.27
2017-10-13T05:51:37.087Z,5.40
2017-10-13T05:54:05.282Z,5.40
2017-10-13T05:56:33.400Z,6.10
2017-10-13T05:59:04.274Z,6.77
2017-10-13T06:01:33.289Z,6.97
2017-10-13T06:04:02.731Z,5.80
2017-10-13T06:06:30.836Z,6.20
2017-10-13T06:09:01.515Z,7.73
2017-10-13T06:11:29.659Z,6.73
2017-10-13T06:13:57.815Z,5.87
2017-10-13T06:16:26.419Z,6.33
2017-10-13T06:18:54.562Z,5.80
2017-10-13T06:21:22.683Z,5.70
2017-10-13T06:23:50.812Z,6.60
2017-10-13T06:26:19.900Z,6.70
2017-10-13T06:28:48.032Z,5.60
2017-10-13T06:31:16.145Z,6.80
2017-10-13T06:33:44.288Z,6.20
2017-10-13T06:36:12.997Z,5.30
2017-10-13T06:38:41.952Z,5.63
2017-10-13T06:41:10.067Z,6.70
2017-10-13T06:43:40.637Z,5.60
2017-10-13T06:46:08.754Z,5.47
2017-10-13T06:48:36.994Z,4.80
2017-10-13T06:51:05.153Z,5.20
2017-10-13T06:53:34.072Z,5.50
2017-10-13T06:56:02.211Z,4.80
2017-10-13T06:58:31.418Z,4.90
2017-10-13T07:01:00.307Z,5.17
2017-10-13T07:03:29.198Z,4.97
2017-10-13T07:05:58.075Z,5.50
2017-10-13T07:08:27.489Z,4.60
2017-10-13T07:10:56.374Z,4.77
2017-10-13T07:13:26.781Z,5.70
2017-10-13T07:15:54.901Z,5.63
2017-10-13T07:18:26.128Z,5.40
2017-10-13T07:20:55.015Z,6.40
2017-10-13T07:23:24.347Z,6.17
2017-10-13T07:25:52.451Z,5.60
2017-10-13T07:28:20.583Z,6.00
2017-10-13T07:30:49.711Z,6.00
2017-10-13T07:33:17.841Z,6.73
2017-10-13T07:35:46.732Z,7.10
2017-10-13T07:38:16.251Z,6.20
2017-10-13T07:40:45.234Z,5.30
2017-10-13T07:43:14.128Z,5.40
2017-10-13T07:45:42.255Z,5.33
2017-10-13T07:48:10.387Z,5.13
2017-10-13T07:50:38.538Z,6.07
2017-10-13T07:53:07.919Z,5.53
2017-10-13T07:55:36.065Z,5.20
2017-10-13T07:58:05.120Z,5.50
2017-10-13T08:00:34.749Z,4.63
2017-10-13T08:03:02.854Z,4.57
2017-10-13T08:05:31.409Z,5.10
2017-10-13T08:07:59.540Z,5.10
2017-10-13T08:10:28.432Z,5.03
2017-10-13T08:12:57.331Z,5.00
2017-10-13T08:15:26.406Z,5.03
2017-10-13T08:17:55.307Z,5.67
2017-10-13T08:20:23.447Z,5.20
2017-10-13T08:22:51.552Z,5.53
2017-10-13T08:25:20.437Z,5.30
2017-10-13T08:27:48.584Z,4.77
2017-10-13T08:30:16.765Z,4.90
2017-10-13T08:32:45.685Z,4.20
2017-10-13T08:35:14.572Z,4.80
2017-10-13T08:37:43.508Z,4.63
2017-10-13T08:40:11.682Z,4.53
2017-10-13T08:42:39.825Z,4.50
2017-10-13T08:45:08.698Z,5.03
2017-10-13T08:47:37.615Z,4.67
2017-10-13T08:50:05.731Z,4.30
2017-10-13T08:52:33.868Z,4.97
2017-10-13T08:55:01.988Z,4.43
2017-10-13T08:57:30.141Z,4.60
2017-10-13T08:59:58.259Z,6.47
2017-10-13T09:02:27.494Z,5.20
2017-10-13T09:04:56.763Z,5.30
2017-10-13T09:07:25.013Z,4.67
2017-10-13T09:09:53.121Z,5.43
2017-10-13T09:12:22.024Z,5.70
2017-10-13T09:14:50.145Z,5.27
2017-10-13T09:17:19.332Z,5.33
2017-10-13T09:19:47.446Z,4.77
2017-10-13T09:22:16.368Z,4.80
2017-10-13T09:24:44.511Z,5.57
2017-10-13T09:27:12.644Z,4.77
2017-10-13T09:29:40.766Z,5.27
2017-10-13T09:32:09.646Z,5.87
2017-10-13T09:34:37.890Z,4.80
2017-10-13T09:37:05.999Z,5.07
2017-10-13T09:39:35.778Z,4.80
2017-10-13T09:42:03.969Z,5.50
2017-10-13T09:44:32.100Z,4.87
2017-10-13T09:47:00.499Z,4.50
2017-10-13T09:49:28.642Z,5.53
2017-10-13T09:51:56.739Z,5.43
2017-10-13T09:54:24.880Z,5.10
2017-10-13T09:56:53.001Z,5.83
2017-10-13T09:59:22.144Z,5.00
2017-10-13T10:01:56.531Z,5.73
2017-10-13T10:04:24.657Z,5.67
2017-10-13T10:06:52.779Z,5.10
2017-10-13T10:09:21.349Z,5.33
2017-10-13T10:11:49.458Z,4.10
2017-10-13T10:14:18.355Z,4.70
2017-10-13T10:16:47.233Z,4.70
2017-10-13T10:19:22.361Z,5.43
2017-10-13T10:21:52.112Z,4.73
2017-10-13T10:24:20.249Z,5.27
2017-10-13T10:26:48.359Z,5.20
2017-10-13T10:29:16.667Z,4.90
2017-10-13T10:31:45.604Z,4.90
2017-10-13T10:34:14.529Z,4.30
2017-10-13T10:36:42.652Z,4.80
2017-10-13T10:39:10.771Z,4.77
2017-10-13T10:41:38.916Z,4.70
2017-10-13T10:44:07.807Z,4.93
2017-10-13T10:46:36.710Z,4.67
2017-10-13T10:49:04.825Z,5.13
2017-10-13T10:51:33.841Z,5.67
2017-10-13T10:54:02.013Z,5.53
2017-10-13T10:56:30.955Z,6.20
2017-10-13T10:59:00.347Z,6.33
2017-10-13T11:01:29.448Z,5.27
2017-10-13T11:03:57.632Z,5.47
2017-10-13T11:06:25.767Z,5.60
2017-10-13T11:08:53.887Z,6.80
2017-10-13T11:11:22.020Z,6.10
2017-10-13T11:13:50.887Z,6.27
2017-10-13T11:16:19.048Z,5.60
2017-10-13T11:18:47.164Z,5.50
2017-10-13T11:21:16.069Z,6.57
2017-10-13T11:23:44.177Z,6.30
2017-10-13T11:26:12.318Z,7.00
2017-10-13T11:28:40.434Z,6.67
2017-10-13T11:31:09.327Z,5.87
2017-10-13T11:33:37.451Z,6.43
2017-10-13T11:36:05.583Z,7.20
2017-10-13T11:38:33.701Z,6.70
2017-10-13T11:41:01.839Z,7.57
2017-10-13T11:43:29.968Z,7.37
2017-10-13T11:45:58.114Z,7.87
2017-10-13T11:48:26.225Z,7.70
2017-10-13T11:50:54.355Z,7.40
2017-10-13T11:53:22.467Z,7.33
2017-10-13T11:55:50.605Z,7.60
2017-10-13T11:58:18.724Z,7.40
2017-10-13T12:00:46.866Z,7.40
2017-10-13T12:03:14.968Z,7.67
2017-10-13T12:05:43.130Z,8.23
2017-10-13T12:08:11.231Z,7.47
2017-10-13T12:10:39.382Z,7.57
2017-10-13T12:13:07.502Z,6.90
2017-10-13T12:15:37.981Z,6.70
2017-10-13T12:18:06.128Z,6.83
2017-10-13T12:20:34.249Z,7.90
2017-10-13T12:23:02.385Z,6.90
2017-10-13T12:25:30.491Z,8.30
2017-10-13T12:27:58.621Z,7.80
2017-10-13T12:30:26.732Z,7.67
2017-10-13T12:32:54.870Z,7.60
2017-10-13T12:35:22.980Z,8.77
2017-10-13T12:37:51.116Z,8.43
2017-10-13T12:40:19.235Z,8.37
2017-10-13T12:42:48.140Z,8.37
2017-10-13T12:45:16.273Z,8.23
2017-10-13T12:47:44.426Z,8.47
2017-10-13T12:50:13.314Z,8.30
2017-10-13T12:52:42.211Z,8.30
2017-10-13T12:55:10.327Z,9.27
2017-10-13T12:57:38.466Z,8.53
2017-10-13T13:00:06.572Z,9.87
2017-10-13T13:02:34.729Z,10.20
2017-10-13T13:05:05.216Z,10.30
2017-10-13T13:07:33.362Z,10.07
2017-10-13T13:10:01.474Z,9.73
2017-10-13T13:12:29.610Z,10.33
2017-10-13T13:14:57.757Z,10.90
2017-10-13T13:17:25.926Z,11.43
2017-10-13T13:19:54.043Z,12.70
2017-10-13T13:22:22.206Z,12.70
2017-10-13T13:24:50.350Z,11.80
2017-10-13T13:27:18.489Z,12.43
2017-10-13T13:29:46.706Z,11.77
2017-10-13T13:32:14.815Z,12.63
2017-10-13T13:34:43.938Z,12.10
2017-10-13T13:37:12.868Z,13.73
2017-10-13T13:39:42.024Z,12.43
2017-10-13T13:42:10.937Z,13.43
2017-10-13T13:44:39.088Z,13.00
2017-10-13T13:47:07.967Z,12.97
2017-10-13T13:49:36.117Z,12.90
2017-10-13T13:52:04.233Z,12.50
2017-10-13T13:54:33.131Z,12.27
2017-10-13T13:57:01.269Z,11.43
2017-10-13T13:59:29.433Z,12.10
2017-10-13T14:04:18.852Z,12.60
2017-10-13T14:06:47.747Z,12.97
2017-10-13T14:09:16.676Z,12.40
2017-10-13T14:11:44.806Z,11.80
2017-10-13T14:14:13.056Z,12.47
2017-10-13T14:16:41.212Z,12.20
2017-10-13T14:19:09.353Z,12.50
2017-10-13T14:21:37.478Z,13.13
2017-10-13T14:24:05.632Z,13.40
2017-10-13T14:26:33.913Z,14.80
2017-10-13T14:29:02.080Z,12.83
2017-10-13T14:31:30.214Z,13.20
2017-10-13T14:33:58.798Z,13.27
2017-10-13T14:36:27.674Z,12.90
2017-10-13T14:38:56.579Z,13.30
2017-10-13T14:41:24.703Z,14.20
2017-10-13T14:43:52.843Z,13.90
2017-10-13T14:46:20.947Z,12.53
2017-10-13T14:48:49.101Z,12.70
2017-10-13T14:51:17.254Z,12.17
2017-10-13T14:53:45.392Z,12.90
2017-10-13T14:56:13.519Z,12.80
2017-10-13T14:58:41.655Z,12.10
2017-10-13T15:01:10.578Z,12.30
2017-10-13T15:03:38.693Z,13.27
2017-10-13T15:06:06.875Z,13.50
2017-10-13T15:08:34.999Z,12.77
2017-10-13T15:11:03.172Z,14.00
2017-10-13T15:13:31.670Z,13.80
2017-10-13T15:15:59.802Z,13.70
2017-10-13T15:18:28.693Z,13.50
2017-10-13T15:20:57.595Z,12.30
2017-10-13T15:23:25.716Z,12.90
2017-10-13T15:25:54.812Z,12.43
2017-10-13T15:28:28.821Z,12.27
2017-10-13T15:31:01.830Z,12.80
2017-10-13T15:33:35.677Z,13.20
2017-10-13T15:36:09.559Z,13.20
2017-10-13T15:38:44.048Z,12.73
2017-10-13T15:41:17.794Z,13.10
2017-10-13T15:43:52.372Z,13.20
2017-10-13T15:46:26.096Z,13.60
2017-10-13T15:48:59.976Z,13.63
2017-10-13T15:51:33.779Z,12.87
2017-10-13T15:54:01.894Z,14.30
2017-10-13T15:56:30.809Z,14.40
2017-10-13T15:58:58.928Z,13.50
2017-10-13T16:01:27.059Z,13.60
2017-10-13T16:03:55.188Z,13.17
2017-10-13T16:06:23.364Z,14.37
2017-10-13T16:08:51.480Z,14.00
2017-10-13T16:11:19.617Z,14.80
2017-10-13T16:13:48.566Z,13.17
2017-10-13T16:16:16.698Z,13.40
2017-10-13T16:18:45.618Z,14.50
2017-10-13T16:21:13.748Z,12.93
2017-10-13T16:23:41.997Z,13.07
2017-10-13T16:26:10.182Z,14.27
2017-10-13T16:28:38.339Z,12.60
2017-10-13T16:31:06.485Z,13.20
2017-10-13T16:33:34.625Z,13.63
2017-10-13T16:36:03.505Z,15.23
2017-10-13T16:38:31.637Z,13.50
2017-10-13T16:40:59.773Z,13.00
2017-10-13T16:43:28.699Z,13.67
2017-10-13T16:45:56.805Z,12.53
2017-10-13T16:48:24.959Z,13.30
2017-10-13T16:50:53.083Z,13.37
2017-10-13T16:53:22.014Z,12.13
2017-10-13T16:55:50.158Z,13.57
2017-10-13T16:58:18.755Z,14.23
2017-10-13T17:00:46.883Z,12.97
2017-10-13T17:03:15.503Z,14.80
2017-10-13T17:05:45.720Z,14.67
2017-10-13T17:08:13.888Z,15.33
2017-10-13T17:10:43.793Z,15.00
2017-10-13T17:13:15.633Z,17.30
2017-10-13T17:15:44.162Z,15.03
2017-10-13T17:18:13.530Z,26.77
2017-10-13T17:20:44.583Z,23.23
2017-10-13T17:23:14.914Z,16.67
2017-10-13T17:25:43.057Z,37.90
2017-10-13T17:28:11.172Z,22.83
2017-10-13T17:30:40.106Z,29.20
2017-10-13T17:33:09.128Z,25.60
2017-10-13T17:35:37.277Z,15.73
2017-10-13T17:38:06.860Z,19.23
2017-10-13T17:40:35.007Z,15.27
2017-10-13T17:43:04.353Z,14.50
2017-10-13T17:45:32.501Z,14.47
2017-10-13T17:48:00.635Z,13.60
2017-10-13T17:50:29.555Z,13.60
2017-10-13T17:52:58.219Z,25.80
2017-10-13T17:55:27.846Z,13.87
2017-10-13T17:57:55.958Z,11.97
2017-10-13T18:00:24.125Z,12.23
2017-10-13T18:02:52.267Z,12.47
2017-10-13T18:05:20.415Z,15.07
2017-10-13T18:07:49.318Z,13.83
2017-10-13T18:10:18.198Z,29.30
2017-10-13T18:12:47.585Z,20.93
2017-10-13T18:15:16.483Z,12.73
2017-10-13T18:17:45.391Z,13.50
2017-10-13T18:20:15.168Z,12.70
2017-10-13T18:22:44.606Z,14.40
2017-10-13T18:25:13.514Z,13.80
2017-10-13T18:27:41.661Z,14.07
2017-10-13T18:30:09.784Z,12.80
2017-10-13T18:32:37.933Z,13.43
2017-10-13T18:35:07.791Z,13.73
2017-10-13T18:37:35.947Z,16.10
2017-10-13T18:40:04.862Z,17.90
2017-10-13T18:42:33.014Z,20.67
2017-10-13T18:45:01.144Z,22.37
2017-10-13T18:47:30.048Z,29.87
2017-10-13T18:49:58.191Z,28.33
2017-10-13T18:52:26.350Z,15.77
2017-10-13T18:54:54.474Z,33.07
2017-10-13T18:57:22.618Z,27.33
2017-10-13T18:59:50.736Z,13.17
2017-10-13T19:02:19.970Z,21.30
2017-10-13T19:04:48.120Z,43.93
2017-10-13T19:07:16.265Z,25.10
2017-10-13T19:09:45.336Z,15.80
2017-10-13T19:12:14.150Z,21.67
2017-10-13T19:14:42.811Z,17.77
2017-10-13T19:17:11.734Z,16.10
2017-10-13T19:19:39.855Z,15.03
2017-10-13T19:22:07.996Z,13.03
2017-10-13T19:24:36.130Z,13.40
2017-10-13T19:27:05.039Z,12.10
2017-10-13T19:29:33.201Z,12.13
2017-10-13T19:32:01.775Z,12.90
2017-10-13T19:34:30.653Z,12.40
2017-10-13T19:36:58.794Z,13.00
2017-10-13T19:39:26.908Z,12.73
2017-10-13T19:41:55.814Z,14.60
2017-10-13T19:44:24.713Z,15.00
2017-10-13T19:46:52.853Z,15.07
2017-10-13T19:49:20.979Z,13.63
2017-10-13T19:51:49.143Z,15.27
2017-10-13T19:54:17.285Z,17.17
2017-10-13T19:56:46.197Z,16.13
2017-10-13T19:59:14.329Z,16.77
2017-10-13T20:01:42.497Z,43.87
2017-10-13T20:04:11.839Z,41.90
2017-10-13T20:06:42.104Z,69.10
2017-10-13T20:09:10.234Z,52.40
2017-10-13T20:11:40.497Z,65.90
2017-10-13T20:14:08.645Z,57.27
2017-10-13T20:16:36.815Z,31.47
2017-10-13T20:19:04.949Z,32.17
2017-10-13T20:21:33.491Z,27.90
2017-10-13T20:24:02.755Z,23.63
2017-10-13T20:26:32.998Z,32.97
2017-10-13T20:29:01.134Z,28.10
2017-10-13T20:31:29.626Z,31.33
2017-10-13T20:33:58.540Z,31.83
2017-10-13T20:36:26.655Z,24.83
2017-10-13T20:38:54.802Z,22.00
2017-10-13T20:41:22.936Z,20.50
2017-10-13T20:43:52.164Z,20.10
2017-10-13T20:46:20.280Z,19.87
2017-10-13T20:48:48.429Z,18.30
2017-10-13T20:51:17.563Z,19.77
2017-10-13T20:53:45.721Z,18.07
2017-10-13T20:56:15.392Z,16.03
2017-10-13T20:58:45.058Z,14.70
2017-10-13T21:01:13.204Z,14.30
2017-10-13T21:03:41.405Z,13.23
2017-10-13T21:06:10.350Z,14.17
2017-10-13T21:08:38.524Z,14.93
2017-10-13T21:11:06.641Z,14.70
2017-10-13T21:13:34.796Z,13.20
2017-10-13T21:16:04.262Z,12.43
2017-10-13T21:18:32.387Z,12.80
2017-10-13T21:21:01.054Z,12.10
2017-10-13T21:23:31.474Z,12.80
2017-10-13T21:26:01.401Z,11.53
2017-10-13T21:28:29.544Z,23.20
2017-10-13T21:30:57.692Z,20.10
2017-10-13T21:33:26.598Z,23.50
2017-10-13T21:35:54.750Z,25.43
2017-10-13T21:38:24.740Z,20.23
2017-10-13T21:40:52.875Z,18.70
2017-10-13T21:43:21.753Z,19.10
2017-10-13T21:45:49.896Z,16.80
2017-10-13T21:48:18.822Z,15.07
2017-10-13T21:50:47.295Z,16.27
2017-10-13T21:53:15.465Z,15.60
2017-10-13T21:55:43.603Z,15.20
2017-10-13T21:58:11.779Z,16.63
2017-10-13T22:00:39.934Z,14.83
2017-10-13T22:03:08.066Z,15.27
2017-10-13T22:05:36.211Z,15.53
2017-10-13T22:08:05.107Z,14.70
2017-10-13T22:10:34.115Z,14.03
2017-10-13T22:13:03.480Z,14.07
2017-10-13T22:15:32.031Z,15.87
2017-10-13T22:18:00.639Z,13.77
2017-10-13T22:20:34.749Z,13.27
2017-10-13T22:23:02.874Z,13.57
2017-10-13T22:25:31.028Z,13.67
2017-10-13T22:27:59.930Z,14.70
2017-10-13T22:30:28.812Z,12.90
2017-10-13T22:32:57.748Z,14.10
2017-10-13T22:35:25.881Z,13.63
2017-10-13T22:37:54.792Z,13.67
2017-10-13T22:40:22.919Z,14.67
2017-10-13T22:42:51.053Z,13.00
2017-10-13T22:45:19.175Z,13.20
2017-10-13T22:47:47.327Z,13.00
2017-10-13T22:50:15.452Z,12.90
2017-10-13T22:52:44.354Z,13.67
2017-10-13T22:55:12.463Z,13.13
2017-10-13T22:57:40.655Z,13.20
2017-10-13T23:00:08.775Z,12.10
2017-10-13T23:02:36.919Z,11.77
2017-10-13T23:05:05.795Z,12.70
2017-10-13T23:07:33.924Z,14.13
2017-10-13T23:10:02.068Z,14.27
2017-10-13T23:12:30.979Z,14.40
2017-10-13T23:14:59.118Z,14.60
2017-10-13T23:17:27.294Z,13.67
2017-10-13T23:19:56.788Z,14.83
2017-10-13T23:22:27.001Z,13.73
2017-10-13T23:24:55.121Z,12.50
2017-10-13T23:27:23.268Z,13.77
2017-10-13T23:29:52.156Z,15.80
2017-10-13T23:32:21.081Z,14.10
2017-10-13T23:34:49.214Z,14.20
2017-10-13T23:37:17.358Z,15.60
2017-10-13T23:39:45.493Z,14.17
2017-10-13T23:42:13.638Z,12.30
2017-10-13T23:44:42.746Z,13.63
2017-10-13T23:47:11.679Z,13.47
2017-10-13T23:49:40.093Z,13.80
2017-10-13T23:52:08.233Z,12.80
2017-10-13T23:54:36.347Z,14.13
2017-10-13T23:57:07.008Z,13.43
2017-10-13T23:59:35.130Z,13.13
